createdAt,value
2022-07-29T00:00:07.051Z,0
2022-07-29T00:03:07.320Z,0
2022-07-29T00:06:07.564Z,0
2022-07-29T00:09:07.089Z,0
2022-07-29T00:12:07.043Z,0
2022-07-29T00:15:07.043Z,0
2022-07-29T00:18:07.092Z,0
2022-07-29T00:21:07.068Z,0
2022-07-29T00:24:07.744Z,0
2022-07-29T00:27:07.020Z,0
2022-07-29T00:30:07.119Z,0
2022-07-29T00:33:11.412Z,0
2022-07-29T00:36:07.031Z,0
2022-07-29T00:39:07.076Z,0
2022-07-29T00:42:07.018Z,0
2022-07-29T00:45:07.088Z,0
2022-07-29T00:48:07.066Z,0
2022-07-29T00:51:09.677Z,0
2022-07-29T00:54:07.097Z,0
2022-07-29T00:57:08.796Z,0
2022-07-29T01:00:07.214Z,0
2022-07-29T01:03:09.011Z,0
2022-07-29T01:06:07.055Z,0
2022-07-29T01:09:07.024Z,0
2022-07-29T01:12:07.238Z,0
2022-07-29T01:15:07.057Z,0
2022-07-29T01:18:08.249Z,0
2022-07-29T01:21:07.036Z,0
2022-07-29T01:24:07.061Z,0
2022-07-29T01:27:08.705Z,0
2022-07-29T01:30:11.881Z,0
2022-07-29T01:33:07.072Z,0
2022-07-29T01:36:07.261Z,0
2022-07-29T01:39:07.011Z,0
2022-07-29T01:42:07.143Z,0
2022-07-29T01:45:07.163Z,0
2022-07-29T01:48:07.089Z,0
2022-07-29T01:51:07.095Z,0
2022-07-29T01:54:07.093Z,0
2022-07-29T01:57:07.130Z,0
2022-07-29T02:00:07.177Z,0
2022-07-29T02:03:07.554Z,0
2022-07-29T02:06:07.070Z,0
2022-07-29T02:09:10.699Z,0
2022-07-29T02:12:07.158Z,0
2022-07-29T02:15:07.236Z,0
2022-07-29T02:18:07.162Z,0
2022-07-29T02:21:07.137Z,0
2022-07-29T02:24:07.056Z,0
2022-07-29T02:27:07.017Z,0
2022-07-29T02:30:07.096Z,0
2022-07-29T02:33:07.094Z,0
2022-07-29T02:36:07.069Z,0
2022-07-29T02:39:07.009Z,0
2022-07-29T02:42:07.074Z,0
2022-07-29T02:45:07.108Z,0
2022-07-29T02:48:07.060Z,0
2022-07-29T02:51:07.108Z,0
2022-07-29T02:54:07.089Z,0
2022-07-29T02:57:07.025Z,3
2022-07-29T03:00:07.091Z,3
2022-07-29T03:03:07.029Z,3
2022-07-29T03:06:07.141Z,7
2022-07-29T03:09:13.465Z,10
2022-07-29T03:12:07.104Z,13
2022-07-29T03:15:07.131Z,20
2022-07-29T03:18:07.081Z,30
2022-07-29T03:21:07.020Z,47
2022-07-29T03:24:14.516Z,63
2022-07-29T03:27:07.363Z,90
2022-07-29T03:30:11.059Z,117
2022-07-29T03:33:17.573Z,143
2022-07-29T03:36:07.109Z,173
2022-07-29T03:39:07.172Z,213
2022-07-29T03:42:07.127Z,267
2022-07-29T03:45:07.088Z,340
2022-07-29T03:48:07.923Z,417
2022-07-29T03:51:07.059Z,490
2022-07-29T03:54:19.072Z,620
2022-07-29T03:57:07.114Z,770
2022-07-29T04:00:07.234Z,963
2022-07-29T04:03:12.903Z,1140
2022-07-29T04:06:07.118Z,1387
2022-07-29T04:09:07.153Z,1720
2022-07-29T04:12:11.009Z,2053
2022-07-29T04:15:07.086Z,2283
2022-07-29T04:18:07.327Z,2383
2022-07-29T04:21:07.155Z,2417
2022-07-29T04:24:07.183Z,2430
2022-07-29T04:27:07.144Z,2503
2022-07-29T04:30:07.106Z,2673
2022-07-29T04:33:07.132Z,2993
2022-07-29T04:36:30.530Z,3460
2022-07-29T04:39:07.083Z,3977
2022-07-29T04:42:10.608Z,4370
2022-07-29T04:45:12.232Z,4660
2022-07-29T04:48:07.074Z,4890
2022-07-29T04:51:07.410Z,5217
2022-07-29T04:54:07.142Z,5730
2022-07-29T04:57:07.157Z,6293
2022-07-29T05:00:07.108Z,6790
2022-07-29T05:03:07.838Z,7197
2022-07-29T05:06:07.071Z,7500
2022-07-29T05:09:07.121Z,7697
2022-07-29T05:12:07.091Z,7750
2022-07-29T05:15:07.153Z,7710
2022-07-29T05:18:07.081Z,7660
2022-07-29T05:21:07.096Z,7680
2022-07-29T05:24:07.093Z,7917
2022-07-29T05:27:07.195Z,8267
2022-07-29T05:30:07.310Z,8610
2022-07-29T05:33:07.054Z,8847
2022-07-29T05:36:08.269Z,9090
2022-07-29T05:39:07.069Z,9417
2022-07-29T05:42:07.133Z,9883
2022-07-29T05:45:07.070Z,10537
2022-07-29T05:48:07.099Z,11067
2022-07-29T05:51:07.048Z,11220
2022-07-29T05:54:07.099Z,10603
2022-07-29T05:57:07.087Z,9823
2022-07-29T06:00:07.180Z,9180
2022-07-29T06:03:07.087Z,8910
2022-07-29T06:06:07.092Z,9150
2022-07-29T06:09:18.754Z,9907
2022-07-29T06:12:07.096Z,11653
2022-07-29T06:15:07.780Z,14740
2022-07-29T06:18:08.857Z,16533
2022-07-29T06:21:07.100Z,17647
2022-07-29T06:24:07.311Z,18200
2022-07-29T06:27:07.143Z,18210
2022-07-29T06:30:07.595Z,16313
2022-07-29T06:33:07.122Z,15277
2022-07-29T06:36:07.423Z,14543
2022-07-29T06:39:10.530Z,14120
2022-07-29T06:42:07.112Z,13280
2022-07-29T06:45:13.624Z,11427
2022-07-29T06:48:07.069Z,11337
2022-07-29T06:51:07.085Z,13603
2022-07-29T06:54:20.081Z,20410
2022-07-29T06:57:07.086Z,20497
2022-07-29T07:00:07.150Z,22213
2022-07-29T07:03:07.060Z,23737
2022-07-29T07:06:08.963Z,24780
2022-07-29T07:09:07.176Z,25927
2022-07-29T07:12:07.138Z,25237
2022-07-29T07:15:07.122Z,23187
2022-07-29T07:18:07.443Z,25367
2022-07-29T07:21:07.137Z,22203
2022-07-29T07:24:07.139Z,24867
2022-07-29T07:27:07.102Z,26943
2022-07-29T07:30:07.176Z,25233
2022-07-29T07:33:07.321Z,29210
2022-07-29T07:36:07.149Z,23297
2022-07-29T07:39:07.947Z,33700
2022-07-29T07:42:07.105Z,34843
2022-07-29T07:45:22.280Z,27143
2022-07-29T07:48:07.097Z,27273
2022-07-29T07:51:07.167Z,28793
2022-07-29T07:54:09.373Z,33723
2022-07-29T07:57:07.088Z,34293
2022-07-29T08:00:07.067Z,36993
2022-07-29T08:03:18.916Z,44363
2022-07-29T08:06:07.167Z,35620
2022-07-29T08:09:36.315Z,39253
2022-07-29T08:12:07.115Z,30287
2022-07-29T08:15:07.194Z,28737
2022-07-29T08:18:15.160Z,27497
2022-07-29T08:21:07.067Z,25450
2022-07-29T08:24:13.706Z,27860
2022-07-29T08:27:42.774Z,26310
2022-07-29T08:30:07.165Z,27563
2022-07-29T08:33:07.489Z,30007
2022-07-29T08:36:07.084Z,33710
2022-07-29T08:39:07.091Z,68110
2022-07-29T08:42:07.683Z,59967
2022-07-29T08:45:07.140Z,62103
2022-07-29T08:48:12.261Z,43990
2022-07-29T08:51:09.118Z,43577
2022-07-29T08:54:07.102Z,43493
2022-07-29T08:57:07.641Z,50567
2022-07-29T09:00:17.991Z,41807
2022-07-29T09:03:07.109Z,40770
2022-07-29T09:06:07.075Z,44440
2022-07-29T09:09:07.104Z,64937
2022-07-29T09:12:07.033Z,69093
2022-07-29T09:15:07.090Z,50157
2022-07-29T09:18:07.106Z,44410
2022-07-29T09:21:07.074Z,47953
2022-07-29T09:24:07.028Z,44790
2022-07-29T09:27:07.116Z,69623
2022-07-29T09:30:08.034Z,88160
2022-07-29T09:33:07.094Z,89510
2022-07-29T09:36:10.122Z,84213
2022-07-29T09:39:07.081Z,89903
2022-07-29T09:42:07.075Z,84300
2022-07-29T09:45:07.097Z,62830
2022-07-29T09:48:07.056Z,74203
2022-07-29T09:51:07.142Z,77210
2022-07-29T09:54:07.063Z,48050
2022-07-29T09:57:07.026Z,44240
2022-07-29T10:00:07.196Z,58900
2022-07-29T10:03:07.460Z,43717
2022-07-29T10:06:07.087Z,56420
2022-07-29T10:09:07.595Z,67460
2022-07-29T10:12:07.711Z,46940
2022-07-29T10:15:07.061Z,60320
2022-07-29T10:18:07.099Z,51250
2022-07-29T10:21:07.078Z,42673
2022-07-29T10:24:14.768Z,35397
2022-07-29T10:27:07.078Z,79490
2022-07-29T10:30:07.149Z,47400
2022-07-29T10:33:07.062Z,99987
2022-07-29T10:36:07.080Z,43930
2022-07-29T10:39:12.154Z,36750
2022-07-29T10:42:11.300Z,33997
2022-07-29T10:45:08.794Z,29990
2022-07-29T10:48:09.984Z,27020
2022-07-29T10:51:09.193Z,24903
2022-07-29T10:54:09.503Z,23570
2022-07-29T10:57:07.710Z,22447
2022-07-29T11:00:07.201Z,20883
2022-07-29T11:03:15.391Z,19103
2022-07-29T11:06:13.622Z,17763
2022-07-29T11:09:13.699Z,16803
2022-07-29T11:12:11.427Z,16227
2022-07-29T11:15:08.391Z,16010
2022-07-29T11:18:08.600Z,16053
2022-07-29T11:21:08.292Z,16167
2022-07-29T11:24:07.662Z,16370
2022-07-29T11:27:11.002Z,16743
2022-07-29T11:30:09.989Z,17020
2022-07-29T11:33:07.407Z,17410
2022-07-29T11:36:18.759Z,17990
2022-07-29T11:39:11.040Z,18690
2022-07-29T11:42:35.307Z,19410
2022-07-29T11:45:50.177Z,19393
2022-07-29T11:48:40.436Z,19093
2022-07-29T11:51:08.732Z,18780
2022-07-29T11:54:19.899Z,18047
2022-07-29T11:57:08.556Z,17350
2022-07-29T12:03:07.500Z,16397
2022-07-29T12:06:10.086Z,16370
2022-07-29T12:09:14.639Z,16380
2022-07-29T12:12:12.780Z,16203
2022-07-29T12:15:08.455Z,15857
2022-07-29T12:18:12.145Z,15820
2022-07-29T12:21:12.371Z,16213
2022-07-29T12:24:16.094Z,16647
2022-07-29T12:27:08.081Z,16823
2022-07-29T12:30:08.194Z,16787
2022-07-29T12:33:07.095Z,16770
2022-07-29T12:36:22.098Z,16800
2022-07-29T12:39:07.154Z,17370
2022-07-29T12:42:18.592Z,18787
2022-07-29T12:45:07.162Z,20660
2022-07-29T12:48:07.107Z,21660
2022-07-29T12:51:07.104Z,21320
2022-07-29T12:54:07.065Z,20890
2022-07-29T12:57:07.118Z,20350
2022-07-29T13:00:07.165Z,19463
2022-07-29T13:03:10.141Z,19513
2022-07-29T13:06:07.095Z,20970
2022-07-29T13:09:07.207Z,22630
2022-07-29T13:12:08.192Z,25043
2022-07-29T13:15:07.115Z,27073
2022-07-29T13:18:07.054Z,30950
2022-07-29T13:21:07.114Z,37440
2022-07-29T13:24:07.071Z,35757
2022-07-29T13:27:10.147Z,35973
2022-07-29T13:30:07.195Z,34897
2022-07-29T13:33:07.075Z,39157
2022-07-29T13:36:07.200Z,59857
2022-07-29T13:39:07.104Z,62513
2022-07-29T13:42:13.212Z,41897
2022-07-29T13:45:07.112Z,33207
2022-07-29T13:48:07.087Z,29217
2022-07-29T13:51:07.054Z,26680
2022-07-29T13:54:07.134Z,22703
2022-07-29T13:57:07.119Z,20263
2022-07-29T14:00:07.186Z,19580
2022-07-29T14:03:07.144Z,19683
2022-07-29T14:06:07.822Z,18917
2022-07-29T14:09:07.111Z,19257
2022-07-29T14:12:07.599Z,18267
2022-07-29T14:15:07.243Z,16003
2022-07-29T14:18:07.128Z,14687
2022-07-29T14:21:07.172Z,13583
2022-07-29T14:24:23.797Z,13803
2022-07-29T14:27:08.168Z,14000
2022-07-29T14:30:07.966Z,13263
2022-07-29T14:33:07.118Z,13960
2022-07-29T14:36:07.909Z,15667
2022-07-29T14:39:07.146Z,16997
2022-07-29T14:42:08.142Z,17760
2022-07-29T14:45:07.975Z,16410
2022-07-29T14:48:07.169Z,12980
2022-07-29T14:51:11.568Z,12537
2022-07-29T14:54:07.136Z,13650
2022-07-29T14:57:07.104Z,13870
2022-07-29T15:00:07.412Z,13517
2022-07-29T15:03:13.345Z,14133
2022-07-29T15:06:07.207Z,15653
2022-07-29T15:09:07.071Z,17993
2022-07-29T15:12:08.090Z,18857
2022-07-29T15:15:07.858Z,18260
2022-07-29T15:18:07.212Z,17993
2022-07-29T15:21:07.116Z,17980
2022-07-29T15:24:07.185Z,19723
2022-07-29T15:27:07.188Z,20257
2022-07-29T15:30:07.257Z,18423
2022-07-29T15:33:07.192Z,17340
2022-07-29T15:36:07.072Z,16623
2022-07-29T15:39:07.279Z,16447
2022-07-29T15:42:07.975Z,18193
2022-07-29T15:45:07.153Z,21220
2022-07-29T15:48:07.164Z,22507
2022-07-29T15:51:07.206Z,21817
2022-07-29T15:54:07.176Z,20437
2022-07-29T15:57:07.707Z,18323
2022-07-29T16:00:07.206Z,17283
2022-07-29T16:03:07.113Z,16883
2022-07-29T16:06:07.054Z,16893
2022-07-29T16:09:07.106Z,17293
2022-07-29T16:12:17.164Z,16970
2022-07-29T16:15:16.333Z,14323
2022-07-29T16:18:07.360Z,11573
2022-07-29T16:21:07.089Z,9030
2022-07-29T16:24:07.077Z,7070
2022-07-29T16:27:08.087Z,6097
2022-07-29T16:30:08.324Z,5767
2022-07-29T16:33:14.272Z,5387
2022-07-29T16:36:07.142Z,5637
2022-07-29T16:39:07.142Z,6037
2022-07-29T16:42:25.728Z,6837
2022-07-29T16:45:09.484Z,7570
2022-07-29T16:48:09.158Z,8213
2022-07-29T16:51:07.263Z,8283
2022-07-29T16:54:07.087Z,8550
2022-07-29T16:57:08.567Z,9060
2022-07-29T17:00:07.270Z,9067
2022-07-29T17:03:07.065Z,9553
2022-07-29T17:06:07.094Z,9580
2022-07-29T17:09:07.255Z,9143
2022-07-29T17:12:07.128Z,8560
2022-07-29T17:15:08.388Z,8250
2022-07-29T17:18:17.020Z,7823
2022-07-29T17:21:07.154Z,7517
2022-07-29T17:24:08.601Z,7907
2022-07-29T17:27:07.680Z,8737
2022-07-29T17:30:07.149Z,9277
2022-07-29T17:33:07.100Z,8657
2022-07-29T17:36:07.163Z,7900
2022-07-29T17:39:07.072Z,7370
2022-07-29T17:42:07.135Z,6813
2022-07-29T17:45:07.118Z,6180
2022-07-29T17:48:07.066Z,5587
2022-07-29T17:51:07.178Z,5073
2022-07-29T17:54:07.070Z,4603
2022-07-29T17:57:07.895Z,4300
2022-07-29T18:00:12.495Z,4177
2022-07-29T18:03:07.473Z,4303
2022-07-29T18:06:07.279Z,4370
2022-07-29T18:09:07.063Z,4420
2022-07-29T18:12:07.084Z,4373
2022-07-29T18:15:07.186Z,4183
2022-07-29T18:18:07.151Z,3820
2022-07-29T18:21:07.112Z,3510
2022-07-29T18:24:07.104Z,3350
2022-07-29T18:27:07.881Z,3210
2022-07-29T18:30:11.525Z,2880
2022-07-29T18:33:28.793Z,2530
2022-07-29T18:36:18.404Z,2127
2022-07-29T18:39:07.136Z,1570
2022-07-29T18:42:07.139Z,1270
2022-07-29T18:45:21.965Z,1063
2022-07-29T18:48:07.086Z,843
2022-07-29T18:51:13.641Z,697
2022-07-29T18:54:07.071Z,577
2022-07-29T19:00:07.119Z,330
2022-07-29T19:03:08.946Z,240
2022-07-29T19:06:07.188Z,183
2022-07-29T19:09:07.138Z,133
2022-07-29T19:12:10.334Z,97
2022-07-29T19:15:07.191Z,73
2022-07-29T19:18:07.991Z,57
2022-07-29T19:21:07.148Z,43
2022-07-29T19:24:20.016Z,33
2022-07-29T19:27:07.573Z,27
2022-07-29T19:30:07.126Z,20
2022-07-29T19:33:07.185Z,13
2022-07-29T19:36:07.116Z,10
2022-07-29T19:39:07.181Z,7
2022-07-29T19:42:10.165Z,7
2022-07-29T19:45:07.089Z,3
2022-07-29T19:48:08.401Z,3
2022-07-29T19:51:07.071Z,3
2022-07-29T19:54:07.043Z,0
2022-07-29T19:57:10.429Z,0
2022-07-29T20:00:13.144Z,0
2022-07-29T20:03:07.381Z,0
2022-07-29T20:06:07.153Z,0
2022-07-29T20:09:07.039Z,0
2022-07-29T20:12:07.117Z,0
2022-07-29T20:15:07.088Z,0
2022-07-29T20:18:07.106Z,0
2022-07-29T20:21:09.118Z,0
2022-07-29T20:24:07.103Z,0
2022-07-29T20:27:17.638Z,0
2022-07-29T20:30:08.685Z,0
2022-07-29T20:33:07.636Z,0
2022-07-29T20:36:07.426Z,0
2022-07-29T20:39:07.212Z,0
2022-07-29T20:42:07.157Z,0
2022-07-29T20:45:14.978Z,0
2022-07-29T20:48:07.071Z,0
2022-07-29T20:51:07.160Z,0
2022-07-29T20:54:07.041Z,0
2022-07-29T20:57:08.030Z,0
2022-07-29T21:00:07.134Z,0
2022-07-29T21:03:09.326Z,0
2022-07-29T21:06:07.125Z,0
2022-07-29T21:09:07.252Z,0
2022-07-29T21:12:07.142Z,0
2022-07-29T21:15:07.110Z,0
2022-07-29T21:18:07.163Z,0
2022-07-29T21:21:07.068Z,0
2022-07-29T21:24:07.206Z,0
2022-07-29T21:27:29.112Z,0
2022-07-29T21:30:07.150Z,0
2022-07-29T21:33:07.439Z,0
2022-07-29T21:36:55.375Z,0
2022-07-29T21:39:07.374Z,0
2022-07-29T21:42:07.238Z,0
2022-07-29T21:45:07.178Z,0
2022-07-29T21:48:07.091Z,0
2022-07-29T21:51:07.019Z,0
2022-07-29T21:54:08.648Z,0
2022-07-29T21:57:09.438Z,0
2022-07-29T22:00:09.890Z,0
2022-07-29T22:03:07.220Z,0
2022-07-29T22:06:07.129Z,0
2022-07-29T22:09:07.128Z,0
2022-07-29T22:12:07.117Z,0
2022-07-29T22:15:07.243Z,0
2022-07-29T22:18:07.081Z,0
2022-07-29T22:21:07.108Z,0
2022-07-29T22:24:07.056Z,0
2022-07-29T22:27:08.010Z,0
2022-07-29T22:30:07.189Z,0
2022-07-29T22:33:07.146Z,0
2022-07-29T22:36:07.079Z,0
2022-07-29T22:39:07.153Z,0
2022-07-29T22:42:07.062Z,0
2022-07-29T22:45:07.790Z,0
2022-07-29T22:48:07.633Z,0
2022-07-29T22:51:07.082Z,0
2022-07-29T22:54:07.065Z,0
2022-07-29T22:57:08.020Z,0
2022-07-29T23:00:07.224Z,0
2022-07-29T23:03:07.119Z,0
2022-07-29T23:06:07.090Z,0
2022-07-29T23:09:07.075Z,0
2022-07-29T23:12:07.096Z,0
2022-07-29T23:15:08.750Z,0
2022-07-29T23:18:07.079Z,0
2022-07-29T23:21:07.095Z,0
2022-07-29T23:24:07.054Z,0
2022-07-29T23:27:08.048Z,0
2022-07-29T23:30:07.173Z,0
2022-07-29T23:33:07.086Z,0
2022-07-29T23:36:07.052Z,0
2022-07-29T23:39:07.143Z,0
2022-07-29T23:42:07.056Z,0
2022-07-29T23:45:07.059Z,0
2022-07-29T23:48:07.122Z,0
2022-07-29T23:51:07.131Z,0
2022-07-29T23:54:07.092Z,0
2022-07-29T23:57:08.221Z,0
